createdAt,value
2023-03-29T00:03:44.229Z,28.15
2023-03-29T00:08:51.020Z,20.77
2023-03-29T00:13:54.486Z,40.72
2023-03-29T00:18:59.670Z,163.32
2023-03-29T00:24:03.309Z,85.18
2023-03-29T00:29:06.775Z,61.95
2023-03-29T00:34:11.726Z,53.67
2023-03-29T00:39:15.355Z,43.33
2023-03-29T00:44:57.550Z,33.67
2023-03-29T00:50:06.144Z,34.95
2023-03-29T00:55:14.713Z,28.30
2023-03-29T01:00:21.374Z,28.83
2023-03-29T01:05:31.007Z,33.20
2023-03-29T01:10:39.659Z,27.30
2023-03-29T01:15:47.317Z,29.48
2023-03-29T01:21:15.105Z,30.40
2023-03-29T01:26:27.092Z,29.27
2023-03-29T01:31:36.009Z,27.83
2023-03-29T01:36:44.311Z,19.95
2023-03-29T01:41:52.013Z,22.13
2023-03-29T01:47:06.573Z,24.80
2023-03-29T01:52:17.021Z,30.27
2023-03-29T01:57:21.729Z,32.67
2023-03-29T02:02:30.005Z,28.38
2023-03-29T02:07:37.451Z,25.67
2023-03-29T02:12:41.233Z,21.58
2023-03-29T02:17:46.410Z,24.00
2023-03-29T02:22:58.410Z,25.23
2023-03-29T02:28:02.503Z,24.73
2023-03-29T02:33:15.700Z,21.30
2023-03-29T02:38:19.222Z,20.20
2023-03-29T02:43:25.973Z,22.48
2023-03-29T02:48:33.441Z,22.90
2023-03-29T02:53:42.991Z,18.40
2023-03-29T02:58:46.378Z,20.17
2023-03-29T03:03:52.047Z,22.95
2023-03-29T03:08:55.535Z,25.77
2023-03-29T03:13:59.330Z,18.67
2023-03-29T03:19:04.652Z,20.08
2023-03-29T03:24:08.581Z,19.67
2023-03-29T03:29:11.962Z,16.17
2023-03-29T03:34:16.791Z,19.33
2023-03-29T03:39:20.328Z,20.00
2023-03-29T03:44:23.858Z,17.33
2023-03-29T03:49:29.090Z,17.17
2023-03-29T03:54:32.699Z,13.50
2023-03-29T03:59:36.104Z,15.65
2023-03-29T04:04:41.352Z,15.65
2023-03-29T04:09:45.152Z,16.48
2023-03-29T04:14:48.636Z,17.63
2023-03-29T04:19:53.367Z,13.88
2023-03-29T04:24:57.304Z,19.63
2023-03-29T04:30:00.900Z,19.25
2023-03-29T04:35:06.861Z,12.45
2023-03-29T04:40:14.179Z,16.88
2023-03-29T04:45:18.537Z,18.25
2023-03-29T04:50:23.359Z,17.60
2023-03-29T04:55:26.742Z,20.27
2023-03-29T05:00:31.619Z,20.63
2023-03-29T05:05:36.465Z,24.38
2023-03-29T05:10:43.345Z,25.48
2023-03-29T05:15:46.733Z,22.75
2023-03-29T05:20:54.140Z,17.50
2023-03-29T05:25:57.891Z,22.05
2023-03-29T05:31:04.593Z,23.95
2023-03-29T05:36:13.612Z,26.20
2023-03-29T05:41:17.893Z,27.73
2023-03-29T05:46:21.690Z,25.33
2023-03-29T05:51:26.579Z,18.17
2023-03-29T05:56:30.192Z,21.35
2023-03-29T06:01:33.542Z,22.55
2023-03-29T06:06:38.281Z,18.63
2023-03-29T06:11:41.803Z,12.77
2023-03-29T06:16:45.281Z,19.92
2023-03-29T06:21:50.068Z,17.05
2023-03-29T06:26:54.208Z,15.35
2023-03-29T06:31:58.068Z,14.95
2023-03-29T06:37:03.567Z,14.93
2023-03-29T06:42:19.977Z,13.90
2023-03-29T06:47:30.764Z,16.50
2023-03-29T06:52:35.936Z,12.93
2023-03-29T06:57:40.028Z,15.30
2023-03-29T07:02:43.736Z,19.17
2023-03-29T07:07:56.696Z,14.98
2023-03-29T07:13:00.737Z,18.52
2023-03-29T07:18:04.949Z,14.70
2023-03-29T07:23:12.607Z,15.52
2023-03-29T07:28:15.986Z,15.80
2023-03-29T07:33:20.282Z,12.18
2023-03-29T07:38:25.394Z,10.88
2023-03-29T07:43:29.113Z,7.03
2023-03-29T07:48:33.015Z,8.57
2023-03-29T07:53:38.525Z,11.35
2023-03-29T07:58:41.982Z,7.32
2023-03-29T08:03:45.393Z,10.80
2023-03-29T08:08:50.195Z,12.23
2023-03-29T08:13:53.608Z,9.77
2023-03-29T08:18:57.272Z,7.57
2023-03-29T08:24:02.888Z,9.15
2023-03-29T08:29:06.947Z,10.05
2023-03-29T08:34:10.338Z,9.57
2023-03-29T08:39:19.429Z,6.95
2023-03-29T08:44:39.967Z,8.27
2023-03-29T08:49:46.395Z,7.10
2023-03-29T08:54:54.081Z,8.90
2023-03-29T09:00:00.275Z,6.85
2023-03-29T09:05:10.219Z,8.98
2023-03-29T09:10:17.536Z,8.38
2023-03-29T09:15:25.289Z,9.10
2023-03-29T09:20:38.790Z,6.78
2023-03-29T09:25:54.358Z,7.78
2023-03-29T09:31:02.834Z,8.02
2023-03-29T09:36:11.827Z,7.35
2023-03-29T09:41:22.663Z,6.22
2023-03-29T09:46:30.732Z,7.50
2023-03-29T09:51:35.083Z,6.55
2023-03-29T09:56:40.998Z,5.75
2023-03-29T10:01:46.501Z,6.47
2023-03-29T10:06:53.874Z,9.80
2023-03-29T10:12:03.258Z,7.32
2023-03-29T10:17:14.743Z,6.72
2023-03-29T10:22:21.949Z,10.52
2023-03-29T10:27:31.559Z,8.30
2023-03-29T10:32:39.301Z,5.78
2023-03-29T10:37:44.242Z,10.45
2023-03-29T10:42:51.912Z,7.68
2023-03-29T10:47:57.059Z,8.50
2023-03-29T10:53:00.837Z,8.07
2023-03-29T10:58:17.803Z,7.53
2023-03-29T11:03:40.360Z,12.15
2023-03-29T11:08:53.884Z,7.03
2023-03-29T11:19:21.953Z,6.13
2023-03-29T11:24:29.609Z,10.48
2023-03-29T11:29:42.588Z,4.63
2023-03-29T11:40:09.403Z,5.03
2023-03-29T11:45:19.702Z,7.13
2023-03-29T11:50:26.718Z,5.97
2023-03-29T11:55:32.693Z,5.97
2023-03-29T12:00:41.577Z,6.72
2023-03-29T12:05:49.437Z,6.50
2023-03-29T12:11:01.565Z,7.05
2023-03-29T12:16:14.708Z,5.82
2023-03-29T12:21:21.428Z,6.28
2023-03-29T12:26:52.640Z,5.72
2023-03-29T12:32:06.417Z,7.28
2023-03-29T12:37:23.787Z,7.68
2023-03-29T12:42:27.365Z,7.85
2023-03-29T12:47:43.191Z,7.72
2023-03-29T12:52:46.805Z,7.00
2023-03-29T12:58:02.359Z,7.70
2023-03-29T13:03:22.522Z,8.20
2023-03-29T13:08:29.523Z,11.43
2023-03-29T13:13:36.686Z,5.72
2023-03-29T13:18:51.832Z,5.13
2023-03-29T13:24:03.017Z,7.28
2023-03-29T13:29:29.121Z,7.40
2023-03-29T13:34:41.214Z,6.47
2023-03-29T13:39:51.470Z,5.18
2023-03-29T13:45:12.157Z,7.65
2023-03-29T13:50:21.394Z,5.97
2023-03-29T13:55:32.277Z,7.50
2023-03-29T14:00:42.837Z,6.50
2023-03-29T14:05:54.608Z,8.85
2023-03-29T14:11:01.771Z,7.63
2023-03-29T14:16:09.105Z,5.25
2023-03-29T14:21:15.757Z,7.90
2023-03-29T14:26:22.045Z,8.38
2023-03-29T14:31:27.294Z,4.40
2023-03-29T14:36:34.328Z,5.65
2023-03-29T14:41:42.776Z,4.63
2023-03-29T14:46:47.514Z,12.05
2023-03-29T14:51:53.365Z,6.68
2023-03-29T14:56:58.129Z,11.00
2023-03-29T15:02:01.658Z,8.02
2023-03-29T15:07:06.725Z,6.70
2023-03-29T15:12:16.956Z,5.60
2023-03-29T15:17:51.234Z,5.22
2023-03-29T15:23:02.320Z,6.13
2023-03-29T15:28:06.342Z,5.03
2023-03-29T15:33:17.826Z,6.82
2023-03-29T15:38:27.662Z,6.00
2023-03-29T15:43:40.439Z,6.82
2023-03-29T15:48:44.198Z,8.73
2023-03-29T15:53:49.070Z,4.47
2023-03-29T15:58:52.440Z,5.65
2023-03-29T16:03:55.855Z,6.00
2023-03-29T16:09:01.059Z,5.85
2023-03-29T16:14:07.771Z,6.88
2023-03-29T16:19:11.541Z,7.22
2023-03-29T16:24:19.611Z,6.20
2023-03-29T16:29:23.371Z,5.30
2023-03-29T16:34:26.869Z,6.25
2023-03-29T16:39:31.811Z,8.98
2023-03-29T16:44:35.778Z,10.70
2023-03-29T16:49:40.249Z,7.60
2023-03-29T16:54:45.364Z,5.93
2023-03-29T16:59:48.809Z,8.25
2023-03-29T17:04:52.253Z,5.93
2023-03-29T17:09:59.760Z,6.95
2023-03-29T17:15:03.831Z,5.93
2023-03-29T17:20:12.163Z,5.72
2023-03-29T17:25:17.508Z,6.80
2023-03-29T17:30:21.252Z,10.13
2023-03-29T17:35:24.897Z,7.53
2023-03-29T17:40:30.586Z,10.82
2023-03-29T17:45:35.834Z,8.65
2023-03-29T17:50:39.387Z,17.52
2023-03-29T17:55:44.333Z,16.15
2023-03-29T18:00:47.783Z,11.18
2023-03-29T18:05:51.335Z,16.23
2023-03-29T18:10:56.245Z,15.85
2023-03-29T18:16:00.296Z,14.50
2023-03-29T18:21:04.190Z,16.00
2023-03-29T18:26:10.320Z,17.83
2023-03-29T18:31:14.235Z,17.23
2023-03-29T18:36:17.815Z,11.45
2023-03-29T18:41:23.483Z,10.52
2023-03-29T18:46:30.804Z,14.57
2023-03-29T18:51:34.781Z,12.68
2023-03-29T18:56:39.648Z,11.25
2023-03-29T19:01:44.142Z,13.63
2023-03-29T19:06:50.564Z,17.52
2023-03-29T19:11:55.404Z,12.60
2023-03-29T19:16:58.806Z,14.77
2023-03-29T19:22:02.245Z,24.92
2023-03-29T19:27:12.472Z,23.63
2023-03-29T19:32:19.115Z,17.42
2023-03-29T19:37:25.604Z,13.10
2023-03-29T19:42:31.287Z,12.82
2023-03-29T19:47:35.623Z,10.13
2023-03-29T19:52:39.584Z,12.60
2023-03-29T19:57:45.045Z,11.65
2023-03-29T20:02:49.741Z,11.50
2023-03-29T20:07:54.444Z,13.93
2023-03-29T20:12:59.717Z,26.90
2023-03-29T20:18:03.581Z,32.53
2023-03-29T20:23:07.069Z,13.93
2023-03-29T20:28:13.801Z,10.18
2023-03-29T20:33:17.497Z,11.75
2023-03-29T20:38:21.690Z,12.82
2023-03-29T20:43:27.425Z,14.23
2023-03-29T20:48:31.903Z,11.45
2023-03-29T20:53:35.674Z,10.07
2023-03-29T20:58:42.217Z,12.45
2023-03-29T21:03:45.813Z,16.42
2023-03-29T21:08:50.479Z,11.15
2023-03-29T21:13:55.940Z,13.40
2023-03-29T21:18:59.549Z,12.23
2023-03-29T21:24:03.722Z,12.45
2023-03-29T21:29:08.777Z,11.88
2023-03-29T21:34:12.199Z,10.60
2023-03-29T21:39:15.964Z,11.38
2023-03-29T21:44:20.877Z,9.05
2023-03-29T21:49:24.582Z,8.80
2023-03-29T21:54:28.571Z,10.32
2023-03-29T21:59:34.635Z,8.88
2023-03-29T22:04:38.583Z,11.30
2023-03-29T22:09:42.672Z,11.68
2023-03-29T22:14:47.640Z,11.80
2023-03-29T22:19:51.636Z,9.88
2023-03-29T22:24:56.799Z,14.70
2023-03-29T22:30:01.592Z,8.15
2023-03-29T22:35:05.648Z,9.50
2023-03-29T22:40:10.872Z,9.93
2023-03-29T22:45:15.796Z,11.85
2023-03-29T22:50:19.787Z,10.73
2023-03-29T22:55:23.236Z,13.20
2023-03-29T23:00:28.077Z,12.00
2023-03-29T23:05:31.507Z,13.32
2023-03-29T23:10:35.492Z,13.30
2023-03-29T23:15:45.199Z,14.40
2023-03-29T23:20:49.488Z,10.52
2023-03-29T23:25:54.534Z,13.15
2023-03-29T23:31:02.747Z,10.18
2023-03-29T23:36:09.126Z,10.07
2023-03-29T23:41:14.142Z,11.07
2023-03-29T23:46:20.547Z,9.23
2023-03-29T23:51:28.464Z,11.65
2023-03-29T23:56:32.024Z,13.00
